Castanheira, Brazil
Current Conditions -  °F | °C
As of 8:00 AM on Friday 24 Oct 2014 (Local Time) from SBVH Reporting Station
Thunderstorm Thunderstorm  
Wind Chill: 72°   Ceiling: 9000
Heat Index: 72°   Visibility: 4mi
Dew Point: 70°   Wind: 0mph
Humidity: 94%   Direction: NA
Pressure: NA   Gusts: NA
Location:  11.13°S, 58.6°W
Report Text: SBVH 241100Z 00000KT 7000 -TSRA SCT015 FEW020CB OVC090 22/21 Q1015
Loading
Personal Weather Stations






























Interactive Weather Map
Tropical Storm Tracking
New forecast layout! Learn more

10-Day Weather Forecast

Advertisements
Track Severe Weather on mobile